Time;durP1;ratioP1;P1;durP2;ratioP2;P2;SDS_P1;SDS_P2;PMS_P1;PMS_P2;Temp;Humidity;BMP_temperature;BMP_pressure;BME280_temperature;BME280_humidity;BME280_pressure;Samples;Min_cycle;Max_cycle;Signal;HPM_P1;HPM_P2
2022/12/08 00:01:06;;;;;;;24.30;16.97;;;3.00;90.20;;;2.37;81.99;97484.44;5089871;28;20456;-72
2022/12/08 00:03:34;;;;;;;22.23;16.97;;;3.00;89.60;;;2.50;81.90;97490.03;5085951;28;20481;-72
2022/12/08 00:11:35;;;;;;;24.70;17.80;;;2.80;90.50;;;2.31;83.16;97480.63;5076387;28;20524;-73
2022/12/08 00:14:03;;;;;;;22.17;17.60;;;2.80;90.90;;;2.41;82.95;97489.22;5096386;28;20455;-72
2022/12/08 00:16:32;;;;;;;26.50;17.63;;;2.80;90.80;;;2.41;82.47;97469.72;5098297;27;20451;-71
2022/12/08 00:18:59;;;;;;;24.90;17.87;;;2.70;91.00;;;2.12;83.32;97465.91;5086814;28;20442;-72
2022/12/08 00:21:28;;;;;;;28.37;18.47;;;2.70;90.90;;;2.14;84.23;97479.88;5082895;28;21049;-72
2022/12/08 00:23:55;;;;;;;27.43;18.53;;;2.70;91.30;;;2.16;83.87;97483.19;5084221;28;20492;-74
2022/12/08 00:26:23;;;;;;;27.53;18.00;;;2.60;91.10;;;2.11;84.25;97474.91;5089154;28;20551;-71
2022/12/08 00:28:51;;;;;;;26.53;18.07;;;2.60;91.60;;;2.21;84.23;97477.34;5085872;28;20461;-71
2022/12/08 00:31:18;;;;;;;27.00;18.90;;;2.60;91.40;;;2.19;83.93;97476.69;5088508;28;20447;-71
2022/12/08 00:33:47;;;;;;;30.07;18.63;;;2.60;91.30;;;2.19;82.72;97448.19;5096442;28;20458;-71
2022/12/08 00:36:15;;;;;;;31.13;19.60;;;2.70;90.90;;;2.24;83.32;97448.50;5118250;27;20453;-71
2022/12/08 00:38:45;;;;;;;28.73;18.97;;;2.70;90.90;;;2.15;83.60;97481.53;5072359;28;20910;-72
2022/12/08 00:41:16;;;;;;;24.87;18.10;;;2.70;90.50;;;2.16;83.60;97472.53;5094359;28;20539;-70
2022/12/08 00:43:43;;;;;;;30.33;18.80;;;2.60;90.40;;;2.20;83.13;97463.22;5093781;28;20493;-72
2022/12/08 00:46:11;;;;;;;27.43;19.80;;;2.70;91.00;;;2.34;82.38;97466.94;5110556;28;20496;-71
2022/12/08 00:48:38;;;;;;;30.33;19.43;;;2.80;90.70;;;2.29;83.24;97481.81;5090770;28;20964;-72
2022/12/08 00:51:07;;;;;;;29.10;20.17;;;2.80;90.70;;;2.22;83.29;97461.19;5103651;28;20452;-71
2022/12/08 00:53:35;;;;;;;24.00;18.50;;;2.70;90.40;;;2.21;82.93;97461.34;5096879;28;20476;-71
2022/12/08 00:56:02;;;;;;;26.17;18.70;;;2.70;90.40;;;1.91;81.73;97399.91;5113688;27;20797;-70
2022/12/08 00:58:29;;;;;;;28.57;17.77;;;2.70;90.20;;;2.06;82.38;97458.63;5080777;28;20454;-71
2022/12/08 01:00:56;;;;;;;24.20;18.20;;;2.70;89.40;;;2.01;82.84;97469.78;5071668;28;20454;-72
2022/12/08 01:03:24;;;;;;;25.87;18.90;;;2.70;89.30;;;2.14;82.59;97466.56;5093143;28;20605;-72
2022/12/08 01:05:51;;;;;;;23.27;18.93;;;2.70;90.30;;;2.26;82.26;97470.50;5093034;28;20458;-71
2022/12/08 01:08:20;;;;;;;24.33;18.27;;;2.70;90.00;;;2.15;82.32;97465.53;5085248;28;20463;-70
2022/12/08 01:10:47;;;;;;;25.57;20.03;;;2.70;89.50;;;2.09;82.42;97474.25;5082518;28;20459;-70
2022/12/08 01:13:14;;;;;;;25.40;18.40;;;2.70;89.50;;;1.91;83.00;97478.00;5092134;28;20453;-71
2022/12/08 01:15:41;;;;;;;26.63;19.03;;;2.50;89.40;;;1.73;83.34;97450.75;5084469;28;20520;-71
2022/12/08 01:18:09;;;;;;;24.43;18.70;;;2.40;89.70;;;1.65;83.49;97464.94;5091074;27;20516;-72
2022/12/08 01:20:36;;;;;;;26.07;19.37;;;2.30;90.30;;;1.67;84.08;97478.94;5076364;28;21234;-73
2022/12/08 01:23:03;;;;;;;26.30;18.63;;;2.30;90.60;;;1.79;83.52;97476.72;5083819;28;20456;-71
2022/12/08 01:25:34;;;;;;;28.53;18.97;;;2.30;90.60;;;1.76;83.40;97469.09;5085286;28;20918;-71
2022/12/08 01:28:01;;;;;;;26.10;19.80;;;2.20;90.80;;;1.77;83.74;97473.41;5080519;28;20465;-73
2022/12/08 01:30:28;;;;;;;25.30;18.57;;;2.20;91.40;;;1.82;83.88;97471.03;5099078;28;20451;-71
2022/12/08 01:32:57;;;;;;;25.50;18.50;;;2.20;91.20;;;1.81;83.87;97462.19;5087196;28;20450;-72
2022/12/08 01:35:24;;;;;;;30.40;19.50;;;2.20;91.80;;;1.76;83.64;97461.09;5079781;28;20453;-73
2022/12/08 01:37:52;;;;;;;24.70;18.63;;;2.10;91.70;;;1.83;83.77;97470.03;5084580;28;20465;-72
2022/12/08 01:40:19;;;;;;;25.33;19.33;;;2.20;92.10;;;1.74;84.18;97473.72;5076436;28;20468;-71
2022/12/08 01:42:47;;;;;;;30.10;19.23;;;2.10;92.20;;;1.73;84.10;97466.75;5081469;28;20479;-72
2022/12/08 01:45:22;;;;;;;29.03;19.80;;;2.10;92.00;;;1.65;83.92;97448.97;5084358;28;20519;-73
2022/12/08 01:47:56;;;;;;;24.90;18.27;;;2.00;92.20;;;1.63;84.33;97461.63;5083899;28;20452;-74
2022/12/08 01:50:24;;;;;;;26.33;18.60;;;2.00;92.30;;;1.63;84.42;97462.47;5078669;28;20820;-73
2022/12/08 01:52:55;;;;;;;26.57;19.37;;;2.00;92.20;;;1.55;85.01;97459.81;5073608;28;21018;-73
2022/12/08 01:55:26;;;;;;;33.00;20.70;;;2.00;93.10;;;1.57;84.59;97455.13;5077382;28;20446;-71
2022/12/08 01:58:01;;;;;;;25.40;19.27;;;1.90;92.80;;;1.44;84.61;97453.03;5084918;28;20476;-72
2022/12/08 02:00:28;;;;;;;27.53;20.20;;;1.80;92.40;;;1.48;84.96;97461.50;5110420;27;20528;-71
2022/12/08 02:02:59;;;;;;;28.43;20.47;;;1.90;92.70;;;1.44;85.08;97457.50;5087833;28;20805;-72
2022/12/08 02:05:29;;;;;;;33.03;20.97;;;1.90;92.60;;;1.39;85.27;97458.03;5082593;28;20470;-73
2022/12/08 02:07:58;;;;;;;29.33;20.27;;;1.80;92.70;;;1.29;85.48;97447.59;5091351;28;20820;-74
2022/12/08 02:10:31;;;;;;;29.70;19.80;;;1.80;93.20;;;1.19;84.88;97428.31;5083415;28;20458;-73
2022/12/08 02:13:01;;;;;;;29.03;18.40;;;1.70;93.30;;;1.04;86.07;97441.47;5086101;28;21712;-71
2022/12/08 02:15:39;;;;;;;28.83;19.73;;;1.70;93.50;;;0.93;86.10;97419.56;5084071;28;21130;-72
2022/12/08 02:18:23;;;;;;;25.30;19.70;;;1.60;93.70;;;1.02;86.08;97436.34;5075722;28;20469;-72
2022/12/08 02:20:57;;;;;;;28.80;18.23;;;1.60;93.60;;;1.00;85.99;97435.66;5086561;28;20457;-72
2022/12/08 02:23:37;;;;;;;25.77;19.10;;;1.50;93.30;;;0.89;86.59;97436.81;5080045;28;20454;-72
2022/12/08 02:27:08;;;;;;;25.37;17.80;;;1.50;93.80;;;1.03;85.71;97430.00;5081116;28;20468;-72
2022/12/08 02:30:12;;;;;;;28.60;19.37;;;1.50;93.70;;;0.84;86.37;97428.53;5073787;28;20468;-72
2022/12/08 02:33:15;;;;;;;28.07;19.13;;;1.50;93.60;;;0.80;86.32;97425.38;5086732;28;20633;-71
2022/12/08 02:35:54;;;;;;;26.07;17.30;;;1.40;93.20;;;0.72;85.80;97393.47;5086646;28;20923;-73
2022/12/08 02:38:31;;;;;;;26.60;17.90;;;1.40;93.30;;;0.90;85.43;97417.22;5089487;28;20460;-71
2022/12/08 02:41:12;;;;;;;27.17;17.73;;;1.40;92.90;;;0.95;85.00;97416.72;5083070;28;20475;-72
2022/12/08 02:43:44;;;;;;;23.40;18.43;;;1.40;92.70;;;0.88;85.13;97405.91;5078818;28;20466;-72
2022/12/08 02:46:16;;;;;;;24.27;17.67;;;1.40;92.70;;;0.98;84.92;97411.03;5103884;28;20472;-72
2022/12/08 02:48:44;;;;;;;26.43;17.93;;;1.30;92.80;;;0.91;84.79;97410.91;5090754;28;20465;-72
2022/12/08 02:51:13;;;;;;;25.27;16.30;;;1.30;93.10;;;0.75;85.08;97394.94;5086930;28;20951;-72
2022/12/08 02:53:41;;;;;;;22.03;16.57;;;1.30;92.60;;;0.88;84.92;97407.75;5083499;28;20453;-71
2022/12/08 02:56:25;;;;;;;20.10;14.87;;;1.30;92.50;;;0.87;84.40;97404.25;5101777;28;20471;-71
2022/12/08 02:59:27;;;;;;;21.93;15.93;;;1.30;92.20;;;0.68;85.03;97390.31;5083373;28;20472;-73
2022/12/08 03:02:17;;;;;;;21.97;16.17;;;1.30;92.00;;;0.74;84.95;97396.78;5091107;28;20497;-71
2022/12/08 03:04:54;;;;;;;25.77;15.93;;;1.30;92.00;;;0.64;85.23;97382.84;5072087;28;20994;-72
2022/12/08 03:07:29;;;;;;;19.57;15.30;;;1.30;91.90;;;0.88;84.41;97397.94;5084810;28;20458;-72
2022/12/08 03:10:04;;;;;;;23.90;15.67;;;1.40;91.70;;;0.81;84.40;97384.47;5078869;28;20949;-72
2022/12/08 03:12:36;;;;;;;23.70;17.10;;;1.40;91.90;;;1.04;83.82;97393.56;5094788;28;21256;-71
2022/12/08 03:15:10;;;;;;;24.30;15.90;;;1.50;91.70;;;1.01;84.09;97381.47;5080835;28;20449;-72
2022/12/08 03:17:39;;;;;;;26.27;18.20;;;1.50;91.40;;;1.13;83.78;97385.41;5086901;28;20450;-72
2022/12/08 03:20:16;;;;;;;22.70;16.87;;;1.60;91.30;;;1.07;83.61;97361.31;5078878;28;20459;-72
2022/12/08 03:22:47;;;;;;;25.90;17.50;;;1.70;91.10;;;1.35;83.09;97380.34;5101557;28;20458;-71
2022/12/08 03:25:17;;;;;;;20.53;16.13;;;1.80;90.70;;;1.35;83.20;97375.03;5084723;28;20963;-73
2022/12/08 03:27:45;;;;;;;26.87;17.10;;;1.90;90.40;;;1.49;82.62;97377.97;5091099;28;20955;-73
2022/12/08 03:30:13;;;;;;;22.37;16.27;;;1.90;90.30;;;0.78;82.60;97262.47;5095481;28;20462;-73
2022/12/08 03:32:47;;;;;;;25.07;16.07;;;1.90;89.90;;;1.49;82.19;97364.66;5121498;28;20467;-75
2022/12/08 03:35:18;;;;;;;24.07;16.63;;;2.00;89.30;;;1.52;82.78;97365.16;5124120;28;20456;-73
2022/12/08 03:37:46;;;;;;;26.67;17.33;;;2.00;89.10;;;1.46;82.26;97338.38;5103071;28;20446;-70
2022/12/08 03:40:17;;;;;;;23.67;15.90;;;2.10;89.00;;;1.58;82.09;97363.59;5099163;28;20457;-70
2022/12/08 03:42:45;;;;;;;21.80;15.60;;;2.10;88.10;;;1.45;82.56;97353.53;5088521;28;20454;-71
2022/12/08 03:45:12;;;;;;;19.63;16.80;;;2.10;88.50;;;1.36;82.80;97328.78;5090341;28;20532;-72
2022/12/08 03:47:39;;;;;;;21.87;16.30;;;2.10;89.10;;;1.36;82.33;97331.44;5089343;28;20937;-71
2022/12/08 03:50:11;;;;;;;22.50;16.63;;;2.10;89.00;;;1.73;81.79;97354.88;5105412;27;20455;-72
2022/12/08 03:52:38;;;;;;;22.23;16.20;;;2.10;88.80;;;1.49;82.16;97343.34;5083931;28;20775;-71
2022/12/08 03:55:08;;;;;;;24.17;15.80;;;2.10;88.50;;;1.63;81.59;97350.59;5076496;28;20460;-72
2022/12/08 03:57:36;;;;;;;20.37;14.53;;;2.10;87.80;;;1.51;81.46;97341.34;5087798;28;20857;-72
2022/12/08 04:00:04;;;;;;;20.90;15.60;;;2.10;87.20;;;1.76;81.45;97344.69;5094623;28;20477;-72
2022/12/08 04:02:31;;;;;;;17.60;13.73;;;2.10;88.30;;;1.58;80.68;97331.66;5108769;27;20513;-73
2022/12/08 04:04:58;;;;;;;21.20;15.53;;;2.10;87.30;;;1.68;80.98;97342.91;5126171;27;20500;-72
2022/12/08 04:07:26;;;;;;;20.33;15.10;;;2.10;87.00;;;1.63;80.92;97329.31;5098179;28;20455;-72
2022/12/08 04:09:53;;;;;;;19.07;14.27;;;2.10;87.10;;;1.66;80.95;97339.59;5082591;28;20527;-73
2022/12/08 04:12:21;;;;;;;22.20;16.73;;;2.20;87.30;;;1.50;81.29;97350.34;5082459;28;20453;-72
2022/12/08 04:14:49;;;;;;;22.50;15.30;;;2.10;86.70;;;1.59;81.08;97343.13;5087849;28;20511;-72
2022/12/08 04:17:18;;;;;;;22.90;15.50;;;2.10;86.90;;;1.47;81.68;97324.88;5084679;28;20461;-72
2022/12/08 04:19:45;;;;;;;21.40;14.30;;;2.00;87.40;;;1.41;81.66;97321.09;5080008;28;20458;-71
2022/12/08 04:22:13;;;;;;;23.63;16.07;;;2.00;87.50;;;1.39;81.71;97335.59;5090575;28;20452;-71
2022/12/08 04:24:41;;;;;;;22.33;15.13;;;1.90;88.10;;;1.58;81.35;97331.66;5082973;28;20480;-72
2022/12/08 04:27:08;;;;;;;23.03;16.00;;;1.90;88.60;;;1.41;81.63;97337.06;5081032;28;20454;-72
2022/12/08 04:29:37;;;;;;;24.20;16.50;;;1.90;87.90;;;1.38;81.83;97342.72;5092785;28;20670;-71
2022/12/08 04:32:05;;;;;;;23.90;16.30;;;1.90;88.50;;;1.39;82.49;97332.94;5073788;28;20467;-72
2022/12/08 04:34:32;;;;;;;19.77;14.50;;;1.80;88.90;;;1.42;81.81;97344.03;5099153;28;21582;-71
2022/12/08 04:37:02;;;;;;;23.60;17.50;;;1.90;89.30;;;1.29;82.54;97342.94;5108827;28;20457;-71
2022/12/08 04:39:29;;;;;;;25.40;16.97;;;1.80;88.80;;;1.39;81.84;97338.25;5082927;28;20480;-72
2022/12/08 04:41:56;;;;;;;22.40;15.00;;;1.80;88.80;;;1.35;81.86;97321.78;5091823;28;21386;-72
2022/12/08 04:44:24;;;;;;;22.70;16.20;;;1.80;89.50;;;0.88;82.27;97261.47;5087253;28;20473;-71
2022/12/08 04:46:52;;;;;;;21.40;15.30;;;1.80;89.60;;;1.32;82.31;97326.63;5088771;28;20446;-71
2022/12/08 04:49:20;;;;;;;21.57;14.77;;;1.80;89.60;;;1.34;82.32;97313.97;5088153;28;20451;-71
2022/12/08 04:51:47;;;;;;;23.20;15.77;;;1.80;89.50;;;1.42;82.02;97325.41;5087972;28;20462;-72
2022/12/08 04:54:14;;;;;;;23.13;17.03;;;1.80;89.60;;;1.20;82.32;97302.22;5080449;28;20451;-72
2022/12/08 04:56:41;;;;;;;21.20;15.50;;;1.80;89.90;;;1.37;82.62;97325.09;5077149;28;20454;-73
2022/12/08 04:59:08;;;;;;;23.90;16.90;;;1.80;89.70;;;1.40;82.38;97327.41;5088494;28;20506;-72
2022/12/08 05:01:36;;;;;;;24.93;16.70;;;1.80;89.50;;;1.44;81.91;97314.59;5079300;28;20464;-72
2022/12/08 05:04:05;;;;;;;23.97;17.17;;;1.90;89.70;;;1.46;81.68;97322.41;5086416;28;20464;-73
2022/12/08 05:06:32;;;;;;;21.50;14.53;;;1.90;89.20;;;1.31;82.20;97317.81;5087189;28;20457;-71
2022/12/08 05:08:59;;;;;;;24.90;16.87;;;1.90;89.10;;;1.37;82.81;97335.75;5108004;28;20462;-71
2022/12/08 05:11:26;;;;;;;24.93;16.70;;;1.80;89.70;;;0.95;82.38;97265.06;5090225;28;21147;-70
2022/12/08 05:13:56;;;;;;;22.33;15.50;;;1.80;89.70;;;1.25;82.79;97316.69;5085053;28;20527;-72
2022/12/08 05:16:24;;;;;;;25.30;16.83;;;1.80;89.50;;;1.22;82.42;97326.84;5107181;28;20446;-73
2022/12/08 05:18:53;;;;;;;24.20;16.30;;;1.80;89.80;;;1.18;83.10;97336.97;5089115;28;20453;-71
2022/12/08 05:21:22;;;;;;;23.23;15.97;;;1.80;90.00;;;1.09;83.37;97322.88;5088398;28;20439;-73
2022/12/08 05:23:53;;;;;;;25.73;16.73;;;1.70;89.90;;;1.22;82.90;97326.84;5085535;28;20466;-72
2022/12/08 05:26:20;;;;;;;27.13;16.97;;;1.70;90.40;;;1.17;83.26;97323.88;5092724;28;20458;-72
2022/12/08 05:28:47;;;;;;;24.77;17.40;;;1.70;90.40;;;1.17;83.62;97329.19;5080711;28;20468;-72
2022/12/08 05:31:16;;;;;;;27.53;17.33;;;1.70;90.40;;;1.24;83.07;97325.66;5090721;28;20467;-73
2022/12/08 05:33:44;;;;;;;25.97;17.03;;;1.70;90.50;;;1.01;83.38;97287.50;5080657;28;20460;-73
2022/12/08 05:36:14;;;;;;;27.00;17.30;;;1.70;90.80;;;1.23;83.48;97326.69;5100646;28;20450;-72
2022/12/08 05:38:44;;;;;;;25.30;17.40;;;1.70;90.80;;;1.23;83.55;97323.16;5083055;28;20453;-68
2022/12/08 05:41:15;;;;;;;27.33;17.90;;;1.70;90.80;;;1.20;83.68;97319.00;5094378;28;20440;-68
2022/12/08 05:43:43;;;;;;;23.90;16.97;;;1.70;90.70;;;1.23;83.09;97309.84;5091489;28;20467;-68
2022/12/08 05:46:11;;;;;;;23.87;16.63;;;1.70;90.60;;;1.25;82.86;97316.69;5098966;28;20790;-69
2022/12/08 05:48:39;;;;;;;26.67;18.17;;;1.80;90.10;;;1.20;83.06;97318.19;5081413;28;20498;-69
2022/12/08 05:51:16;;;;;;;29.93;17.40;;;1.80;90.10;;;1.24;83.40;97319.50;5091359;28;20462;-70
2022/12/08 05:53:45;;;;;;;29.27;18.03;;;1.80;90.50;;;1.18;83.32;97315.69;5084609;28;20840;-69
2022/12/08 05:56:12;;;;;;;25.50;18.30;;;1.80;90.10;;;1.15;83.59;97305.41;5087705;28;20462;-68
2022/12/08 05:58:40;;;;;;;26.30;16.10;;;1.80;90.30;;;1.20;83.18;97318.19;5078238;28;20456;-68
2022/12/08 06:01:07;;;;;;;25.10;16.13;;;1.70;90.40;;;1.11;83.17;97306.75;5076294;28;20466;-71
2022/12/08 06:03:34;;;;;;;24.60;17.23;;;1.70;90.40;;;1.22;83.19;97325.00;5081409;28;20477;-67
2022/12/08 06:06:02;;;;;;;26.97;17.60;;;1.70;90.40;;;1.34;82.97;97324.63;5091417;28;20478;-68
2022/12/08 06:08:29;;;;;;;26.50;17.07;;;1.80;90.30;;;1.40;82.65;97319.41;5092621;28;20465;-67
2022/12/08 06:10:57;;;;;;;24.90;16.37;;;1.80;90.30;;;1.45;82.83;97315.44;5080656;28;20463;-68
2022/12/08 06:13:24;;;;;;;24.67;16.43;;;1.90;90.30;;;1.46;82.70;97322.41;5090542;28;20458;-69
2022/12/08 06:15:51;;;;;;;21.73;15.20;;;1.90;90.10;;;1.43;82.35;97307.59;5104674;27;20521;-68
2022/12/08 06:18:19;;;;;;;27.90;16.50;;;1.90;90.00;;;1.25;82.96;97305.19;5064282;28;20454;-67
2022/12/08 06:20:46;;;;;;;23.80;16.03;;;1.80;90.00;;;1.31;83.81;97309.84;5104750;27;20458;-68
2022/12/08 06:23:14;;;;;;;26.03;17.00;;;1.80;90.50;;;1.14;84.01;97293.09;5072034;28;20961;-67
2022/12/08 06:25:41;;;;;;;27.60;17.60;;;1.70;90.30;;;1.30;82.62;97308.19;5085506;28;20809;-67
2022/12/08 06:28:09;;;;;;;24.33;16.07;;;1.80;90.00;;;1.26;83.47;97312.16;5099615;28;20808;-68
2022/12/08 06:30:38;;;;;;;24.80;17.30;;;1.80;90.30;;;1.23;83.25;97315.19;5082673;28;20491;-66
2022/12/08 06:33:05;;;;;;;24.83;16.30;;;1.80;90.30;;;1.29;83.73;97314.50;5082864;28;20454;-66
2022/12/08 06:35:32;;;;;;;25.13;16.60;;;1.80;90.60;;;1.41;82.90;97318.41;5075523;28;20530;-65
2022/12/08 06:37:59;;;;;;;25.47;16.90;;;1.90;90.60;;;1.42;82.98;97317.41;5068667;28;20604;-66
2022/12/08 06:40:26;;;;;;;24.17;15.60;;;1.90;90.80;;;1.44;82.58;97317.25;5072171;28;20884;-66
2022/12/08 06:42:53;;;;;;;26.73;16.80;;;1.90;90.10;;;1.52;81.99;97317.22;5081656;28;20464;-67
2022/12/08 06:45:22;;;;;;;21.70;16.40;;;1.90;89.60;;;1.33;82.11;97318.47;5075386;28;20479;-67
2022/12/08 06:47:49;;;;;;;25.87;15.80;;;1.90;89.50;;;1.82;84.48;97314.72;5076165;28;20954;-67
2022/12/08 06:50:16;;;;;;;25.90;18.80;;;2.10;92.90;;;1.65;81.51;97315.78;5075625;28;20560;-66
2022/12/08 06:52:45;;;;;;;29.30;16.80;;;2.10;89.40;;;1.59;81.80;97317.31;5078382;28;20452;-65
2022/12/08 06:55:12;;;;;;;30.50;17.37;;;2.10;88.70;;;1.43;81.98;97299.63;5066763;28;20457;-66
2022/12/08 06:57:39;;;;;;;26.17;16.80;;;2.00;88.90;;;0.93;82.25;97227.19;5073966;28;20470;-66
2022/12/08 07:00:08;;;;;;;25.17;15.93;;;2.00;89.50;;;1.40;82.97;97316.75;5075050;28;20479;-70
2022/12/08 07:02:37;;;;;;;28.20;17.83;;;1.90;89.80;;;1.45;82.46;97312.78;5089642;28;20454;-68
2022/12/08 07:05:05;;;;;;;24.53;15.83;;;2.00;90.00;;;1.45;82.69;97320.75;5082081;28;20544;-69
2022/12/08 07:07:32;;;;;;;24.57;16.17;;;2.00;89.70;;;1.46;81.99;97325.06;5090014;28;20469;-68
2022/12/08 07:10:00;;;;;;;22.97;16.47;;;2.00;89.70;;;1.39;82.72;97328.41;5116415;27;20458;-69
2022/12/08 07:12:27;;;;;;;24.23;15.77;;;1.90;89.50;;;1.50;82.29;97331.69;5083285;28;20509;-69
2022/12/08 07:14:54;;;;;;;27.50;16.73;;;2.00;89.70;;;1.40;82.50;97332.72;5115812;27;20453;-68
2022/12/08 07:17:21;;;;;;;26.07;16.30;;;1.90;89.90;;;1.37;82.60;97335.75;5083371;28;20459;-66
2022/12/08 07:19:49;;;;;;;24.20;15.93;;;1.90;90.00;;;1.53;82.25;97334.00;5082632;28;20483;-67
2022/12/08 07:22:17;;;;;;;26.70;17.67;;;1.90;89.80;;;1.33;82.34;97339.78;5085637;28;20458;-68
2022/12/08 07:24:44;;;;;;;28.43;17.47;;;1.90;89.80;;;1.33;83.02;97333.59;5079155;28;20447;-66
2022/12/08 07:27:11;;;;;;;29.20;17.07;;;1.80;90.20;;;1.22;83.03;97337.47;5077749;28;20608;-67
2022/12/08 07:29:38;;;;;;;27.40;19.90;;;1.80;90.00;;;1.21;83.36;97335.81;5110704;27;20462;-67
2022/12/08 07:32:08;;;;;;;25.50;16.50;;;1.80;90.10;;;1.34;83.19;97335.25;5076941;28;20455;-67
2022/12/08 07:34:35;;;;;;;24.53;15.30;;;1.80;90.30;;;1.24;82.93;97333.66;5075356;28;20794;-68
2022/12/08 07:37:04;;;;;;;26.10;16.80;;;1.80;89.60;;;1.32;82.62;97330.13;5076981;28;20518;-68
2022/12/08 07:39:31;;;;;;;23.60;17.17;;;1.80;90.00;;;1.34;82.67;97336.09;5089773;28;20462;-68
2022/12/08 07:41:58;;;;;;;23.43;15.77;;;1.80;89.90;;;1.50;82.22;97329.03;5089723;27;20475;-69
2022/12/08 07:44:26;;;;;;;22.83;14.50;;;1.90;89.70;;;1.39;82.26;97333.75;5075643;28;20595;-69
2022/12/08 07:46:53;;;;;;;26.03;16.57;;;1.90;89.10;;;1.39;82.51;97339.06;5077689;28;20477;-68
2022/12/08 07:49:20;;;;;;;25.47;16.97;;;1.90;89.20;;;1.62;82.21;97337.47;5084566;28;21101;-69
2022/12/08 07:51:52;;;;;;;26.50;17.30;;;1.90;90.10;;;1.55;82.05;97327.50;5086047;28;20464;-69
2022/12/08 07:54:20;;;;;;;25.80;17.77;;;2.00;89.80;;;1.65;81.54;97321.97;5078103;28;20462;-68
2022/12/08 07:56:48;;;;;;;23.53;15.67;;;2.00;89.10;;;1.24;82.40;97309.69;5078378;28;20453;-68
2022/12/08 07:59:15;;;;;;;24.90;17.27;;;1.90;88.90;;;1.51;82.04;97307.53;5081047;28;20459;-70
2022/12/08 08:01:44;;;;;;;23.40;15.10;;;2.00;89.10;;;1.58;81.58;97336.16;5073799;28;20460;-71
2022/12/08 08:04:11;;;;;;;25.50;15.80;;;2.00;88.70;;;1.65;81.32;97321.97;5077641;28;20482;-68
2022/12/08 08:06:38;;;;;;;24.40;16.50;;;2.10;88.10;;;1.84;81.31;97322.50;5071374;28;21294;-68
2022/12/08 08:09:05;;;;;;;25.97;16.37;;;2.20;88.10;;;1.56;80.99;97323.00;5075526;28;20469;-69
2022/12/08 08:11:34;;;;;;;26.70;15.73;;;2.10;87.40;;;1.89;80.34;97319.31;5082004;28;20461;-70
2022/12/08 08:14:02;;;;;;;22.07;15.40;;;2.30;87.20;;;2.21;79.29;97325.41;5076783;28;20458;-69
2022/12/08 08:16:29;;;;;;;24.60;16.60;;;2.40;86.50;;;2.19;78.85;97317.59;5069648;28;20468;-68
2022/12/08 08:18:56;;;;;;;23.90;16.63;;;2.50;85.60;;;2.16;78.87;97317.94;5081734;28;20462;-67
2022/12/08 08:21:23;;;;;;;22.00;15.70;;;2.60;85.00;;;1.73;80.11;97318.41;5098975;28;20481;-70
2022/12/08 08:23:51;;;;;;;22.57;15.53;;;2.40;85.10;;;1.74;81.00;97324.56;5077790;28;20463;-69
2022/12/08 08:26:18;;;;;;;20.40;14.77;;;2.30;85.90;;;1.95;79.87;97329.25;5073190;28;20476;-68
2022/12/08 08:28:48;;;;;;;21.97;15.23;;;2.40;86.20;;;1.72;80.78;97322.09;5073805;28;20626;-68
2022/12/08 08:31:16;;;;;;;21.77;15.20;;;2.30;86.00;;;1.93;80.57;97324.13;5079310;28;20453;-70
2022/12/08 08:33:43;;;;;;;25.27;15.57;;;2.40;85.80;;;1.94;79.59;97320.44;5072875;28;20458;-68
2022/12/08 08:36:11;;;;;;;22.60;14.93;;;2.40;85.10;;;1.84;79.62;97319.84;5084582;28;20459;-73
2022/12/08 08:38:39;;;;;;;21.23;14.97;;;2.40;85.20;;;2.06;79.72;97330.69;5065872;28;20462;-68
2022/12/08 08:41:10;;;;;;;25.43;16.20;;;2.50;85.40;;;1.78;79.94;97337.34;5072562;28;20465;-70
2022/12/08 08:43:38;;;;;;;20.53;14.93;;;2.40;84.80;;;2.33;78.55;97328.47;5070191;28;20547;-66
2022/12/08 08:46:07;;;;;;;24.73;15.43;;;2.60;84.80;;;2.21;78.74;97326.25;5076154;28;20473;-66
2022/12/08 08:48:35;;;;;;;23.80;15.70;;;2.60;84.20;;;2.36;78.21;97331.63;5081710;28;20528;-67
2022/12/08 08:51:09;;;;;;;26.83;15.97;;;2.70;84.00;;;2.51;77.83;97323.66;5086064;28;20451;-66
2022/12/08 08:53:37;;;;;;;23.47;15.67;;;2.80;84.00;;;2.39;77.59;97327.78;5084912;28;20454;-67
2022/12/08 08:56:08;;;;;;;20.77;15.60;;;2.80;83.40;;;2.40;77.88;97334.75;5071895;28;20955;-65
2022/12/08 08:58:36;;;;;;;21.57;15.50;;;2.70;83.50;;;2.41;78.04;97325.75;5087418;28;20513;-65
2022/12/08 09:01:04;;;;;;;22.67;15.03;;;2.80;83.40;;;2.14;78.27;97330.63;5083402;28;20451;-66
2022/12/08 09:03:33;;;;;;;24.43;15.77;;;2.70;83.00;;;1.76;79.26;97296.75;5087874;28;20453;-65
2022/12/08 09:06:00;;;;;;;25.87;17.47;;;2.60;83.70;;;2.12;79.46;97329.97;5082326;28;21017;-65
2022/12/08 09:08:27;;;;;;;22.80;14.77;;;2.60;84.30;;;1.92;78.82;97333.13;5088960;28;21169;-66
2022/12/08 09:10:55;;;;;;;23.50;14.87;;;2.60;83.50;;;2.06;79.33;97318.19;5080155;28;20528;-66
2022/12/08 09:13:23;;;;;;;21.37;14.67;;;2.50;83.90;;;2.23;78.19;97329.56;5094146;28;20481;-64
2022/12/08 09:15:50;;;;;;;24.73;16.63;;;2.60;83.90;;;2.29;78.21;97322.69;5100841;28;20445;-65
2022/12/08 09:18:17;;;;;;;21.03;15.13;;;2.70;83.70;;;2.39;77.37;97311.78;5085646;28;21151;-65
2022/12/08 09:20:46;;;;;;;24.33;15.30;;;2.80;83.40;;;2.07;79.37;97313.69;5089966;28;20458;-65
2022/12/08 09:23:13;;;;;;;23.23;15.23;;;2.60;83.40;;;2.22;78.45;97313.75;5088266;28;20470;-66
2022/12/08 09:25:43;;;;;;;20.37;14.97;;;2.70;83.60;;;2.25;78.09;97314.22;5082057;28;21016;-65
2022/12/08 09:28:11;;;;;;;22.43;15.03;;;2.70;83.10;;;2.26;77.91;97317.69;5082632;28;20455;-68
2022/12/08 09:30:38;;;;;;;24.20;16.00;;;2.80;83.20;;;2.30;78.44;97310.19;5125982;27;20445;-65
2022/12/08 09:33:05;;;;;;;26.93;16.30;;;2.80;83.20;;;2.68;77.61;97310.97;5090563;28;20454;-65
2022/12/08 09:35:33;;;;;;;20.20;14.20;;;2.90;83.10;;;2.34;77.74;97298.13;5097031;28;20462;-66
2022/12/08 09:38:01;;;;;;;23.93;15.97;;;3.00;82.60;;;2.66;76.90;97301.53;5076421;28;21010;-66
2022/12/08 09:40:33;;;;;;;21.03;14.17;;;3.00;82.40;;;2.34;77.09;97250.16;5088598;28;20748;-67
2022/12/08 09:43:10;;;;;;;20.57;14.60;;;3.10;82.50;;;2.67;76.47;97309.31;5081757;28;20488;-66
2022/12/08 09:45:38;;;;;;;22.23;15.10;;;3.10;82.30;;;2.91;75.95;97298.56;5089406;28;20450;-66
2022/12/08 09:48:14;;;;;;;23.93;16.43;;;3.20;82.20;;;2.80;76.44;97298.00;5089994;28;20459;-66
2022/12/08 09:50:48;;;;;;;21.70;14.50;;;3.30;81.90;;;2.82;76.04;97306.69;5086353;28;20508;-65
2022/12/08 09:53:23;;;;;;;20.60;14.37;;;3.30;81.50;;;2.83;75.64;97292.34;5083533;28;20868;-65
2022/12/08 09:55:54;;;;;;;23.67;14.67;;;3.30;81.60;;;2.60;76.71;97297.75;5073501;28;20463;-66
2022/12/08 09:58:28;;;;;;;23.57;16.00;;;3.30;81.30;;;2.85;76.18;97278.78;5084167;28;20473;-66
2022/12/08 10:00:56;;;;;;;19.50;13.87;;;3.30;81.70;;;2.72;76.19;97292.78;5079756;28;21210;-66
2022/12/08 10:03:28;;;;;;;19.13;14.33;;;3.30;81.40;;;2.77;76.19;97282.38;5074829;28;20469;-66
2022/12/08 10:06:07;;;;;;;18.80;12.83;;;3.30;81.10;;;2.73;75.54;97281.09;5082211;28;20486;-66
2022/12/08 10:08:43;;;;;;;20.03;13.80;;;3.30;81.00;;;2.94;75.51;97280.34;5077707;28;20463;-66
2022/12/08 10:11:14;;;;;;;21.17;14.20;;;3.40;80.90;;;3.20;74.21;97276.38;5080581;28;20788;-65
2022/12/08 10:13:50;;;;;;;22.70;14.57;;;3.50;80.80;;;2.86;75.35;97283.09;5082184;28;20459;-66
2022/12/08 10:16:28;;;;;;;22.20;13.70;;;3.50;80.40;;;3.07;75.31;97268.22;5081436;28;20482;-64
2022/12/08 10:19:02;;;;;;;19.33;13.90;;;3.50;80.50;;;3.15;74.26;97272.63;5078373;28;20592;-66
2022/12/08 10:21:31;;;;;;;18.57;13.10;;;3.60;80.10;;;3.17;73.69;97267.91;5079201;28;20493;-65
2022/12/08 10:24:09;;;;;;;19.93;11.87;;;3.60;80.10;;;3.09;73.87;97269.66;5086287;28;20462;-68
2022/12/08 10:26:37;;;;;;;18.80;13.40;;;3.60;79.80;;;3.17;73.63;97258.03;5084266;28;20470;-66
2022/12/08 10:29:05;;;;;;;18.67;12.10;;;3.60;79.60;;;3.32;73.37;97251.84;5083692;28;20451;-66
2022/12/08 10:31:33;;;;;;;14.37;11.43;;;3.70;79.40;;;3.67;72.63;97255.53;5083229;28;20544;-67
2022/12/08 10:34:10;;;;;;;20.27;13.47;;;3.90;79.50;;;4.00;71.00;97248.00;5088805;28;20458;-66
2022/12/08 10:36:52;;;;;;;12.93;11.37;;;4.10;79.00;;;3.87;70.36;97243.38;5082732;28;20471;-67